createdAt,value
2022-10-19T04:50:06.303Z,4.40
2022-10-19T04:52:35.457Z,4.30
2022-10-19T04:55:02.466Z,4.07
2022-10-19T04:57:29.523Z,4.23
2022-10-19T04:59:56.336Z,4.37
2022-10-19T05:02:23.262Z,4.40
2022-10-19T05:04:50.055Z,4.27
2022-10-19T05:07:16.985Z,4.73
2022-10-19T05:09:43.845Z,4.33
2022-10-19T05:12:10.665Z,4.50
2022-10-19T05:14:39.130Z,4.33
2022-10-19T05:17:08.904Z,4.80
2022-10-19T05:19:35.724Z,4.77
2022-10-19T05:22:02.538Z,4.47
2022-10-19T05:24:29.322Z,4.10
2022-10-19T05:26:56.156Z,4.50
2022-10-19T05:29:23.652Z,4.40
2022-10-19T05:31:50.641Z,4.20
2022-10-19T05:34:17.408Z,4.00
2022-10-19T05:36:44.264Z,5.60
2022-10-19T05:39:14.641Z,4.67
2022-10-19T05:41:44.059Z,4.90
2022-10-19T05:44:21.197Z,4.23
2022-10-19T05:46:48.966Z,4.23
2022-10-19T05:49:17.808Z,4.93
2022-10-19T05:51:44.926Z,5.03
2022-10-19T05:54:12.764Z,3.93
2022-10-19T05:56:40.726Z,4.90
2022-10-19T05:59:09.191Z,4.13
2022-10-19T06:01:36.669Z,5.20
2022-10-19T06:04:04.344Z,4.47
2022-10-19T06:06:31.570Z,4.67
2022-10-19T06:08:59.246Z,4.37
2022-10-19T06:11:31.567Z,5.10
2022-10-19T06:13:59.378Z,4.60
2022-10-19T06:16:27.387Z,4.70
2022-10-19T06:18:54.619Z,4.80
2022-10-19T06:21:23.816Z,5.43
2022-10-19T06:23:55.327Z,4.60
2022-10-19T06:26:22.836Z,4.40
2022-10-19T06:28:50.329Z,6.03
2022-10-19T06:31:17.990Z,4.97
2022-10-19T06:33:48.551Z,5.17
2022-10-19T06:36:19.227Z,5.30
2022-10-19T06:38:46.278Z,4.80
2022-10-19T06:41:13.299Z,5.50
2022-10-19T06:43:40.631Z,4.37
2022-10-19T06:46:12.629Z,5.37
2022-10-19T06:48:39.435Z,5.17
2022-10-19T06:51:07.806Z,5.13
2022-10-19T06:53:36.055Z,7.27
2022-10-19T06:56:05.121Z,5.73
2022-10-19T06:58:35.523Z,5.40
2022-10-19T07:01:02.714Z,4.70
2022-10-19T07:03:30.292Z,5.37
2022-10-19T07:05:59.327Z,5.20
2022-10-19T07:08:28.239Z,5.00
2022-10-19T07:11:00.551Z,4.60
2022-10-19T07:13:28.420Z,5.60
2022-10-19T07:16:03.795Z,5.17
2022-10-19T07:18:30.586Z,5.67
2022-10-19T07:21:03.369Z,6.07
2022-10-19T07:23:31.740Z,6.03
2022-10-19T07:26:02.040Z,6.23
2022-10-19T07:28:30.381Z,4.90
2022-10-19T07:30:57.729Z,4.50
2022-10-19T07:33:24.655Z,4.90
2022-10-19T07:35:51.494Z,4.90
2022-10-19T07:38:18.326Z,5.27
2022-10-19T07:40:47.375Z,4.13
2022-10-19T07:43:14.480Z,5.33
2022-10-19T07:45:41.298Z,4.53
2022-10-19T07:48:08.217Z,5.10
2022-10-19T07:50:35.082Z,5.07
2022-10-19T07:53:03.708Z,4.87
2022-10-19T07:55:30.521Z,4.83
2022-10-19T07:58:01.642Z,4.53
2022-10-19T08:00:28.769Z,4.63
2022-10-19T08:03:19.317Z,4.93
2022-10-19T08:05:42.924Z,4.07
2022-10-19T08:08:10.008Z,4.60
2022-10-19T08:10:37.321Z,4.90
2022-10-19T08:13:04.771Z,4.50
2022-10-19T08:15:33.195Z,4.13
2022-10-19T08:18:01.485Z,4.23
2022-10-19T08:20:28.925Z,5.03
2022-10-19T08:22:58.934Z,4.80
2022-10-19T08:25:26.837Z,4.40
2022-10-19T08:27:54.276Z,4.57
2022-10-19T08:30:21.738Z,4.37
2022-10-19T08:32:49.402Z,3.83
2022-10-19T08:35:16.863Z,5.07
2022-10-19T08:40:19.563Z,4.33
2022-10-19T08:43:02.877Z,4.10
2022-10-19T08:45:33.338Z,4.20
2022-10-19T08:48:15.643Z,4.23
2022-10-19T08:50:45.205Z,4.83
2022-10-19T08:53:33.102Z,4.37
2022-10-19T08:56:07.377Z,5.00
2022-10-19T08:59:10.531Z,4.27
2022-10-19T09:01:41.785Z,5.10
2022-10-19T09:04:20.494Z,4.70
2022-10-19T09:07:00.860Z,4.20
2022-10-19T09:09:31.333Z,4.10
2022-10-19T09:12:05.447Z,4.47
2022-10-19T09:17:17.296Z,4.40
2022-10-19T09:19:44.484Z,5.40
2022-10-19T09:22:28.571Z,5.90
2022-10-19T09:25:01.958Z,5.33
2022-10-19T09:27:50.666Z,4.80
2022-10-19T09:30:21.345Z,4.10
2022-10-19T09:32:50.972Z,4.30
2022-10-19T09:35:35.026Z,4.90
2022-10-19T09:38:02.626Z,4.80
2022-10-19T09:40:31.350Z,4.83
2022-10-19T09:42:59.943Z,4.27
2022-10-19T09:45:38.184Z,4.40
2022-10-19T09:48:28.905Z,4.30
2022-10-19T09:53:27.221Z,4.90
2022-10-19T09:56:00.282Z,4.73
2022-10-19T09:58:32.875Z,4.83
2022-10-19T10:01:02.033Z,5.40
2022-10-19T10:03:32.631Z,5.37
2022-10-19T10:06:04.044Z,5.20
2022-10-19T10:08:34.537Z,4.77
2022-10-19T10:11:16.798Z,4.80
2022-10-19T10:13:49.092Z,5.13
2022-10-19T10:16:19.134Z,5.00
2022-10-19T10:19:06.735Z,4.97
2022-10-19T10:21:37.117Z,4.47
2022-10-19T10:24:25.550Z,4.73
2022-10-19T10:26:57.237Z,4.97
2022-10-19T10:29:28.392Z,3.90
2022-10-19T10:32:00.146Z,4.60
2022-10-19T10:34:49.772Z,4.60
2022-10-19T10:37:32.042Z,4.73
2022-10-19T10:40:03.372Z,5.47
2022-10-19T10:42:52.662Z,4.93
2022-10-19T10:45:25.268Z,4.90
2022-10-19T10:47:53.621Z,4.73
2022-10-19T10:50:33.381Z,4.40
2022-10-19T10:53:07.235Z,4.63
2022-10-19T10:55:35.218Z,5.00
2022-10-19T10:58:25.502Z,4.93
2022-10-19T11:03:25.891Z,4.53
2022-10-19T11:06:00.233Z,5.03
2022-10-19T11:08:34.374Z,5.20
2022-10-19T11:11:11.698Z,4.40
2022-10-19T11:13:52.091Z,4.93
2022-10-19T11:16:40.217Z,4.67
2022-10-19T11:19:20.148Z,5.73
2022-10-19T11:22:05.343Z,5.87
2022-10-19T11:25:23.731Z,5.20
2022-10-19T11:28:08.931Z,5.77
2022-10-19T11:30:48.657Z,5.73
2022-10-19T11:33:57.852Z,5.73
2022-10-19T11:36:30.462Z,4.40
2022-10-19T11:39:18.602Z,4.77
2022-10-19T11:42:10.192Z,4.90
2022-10-19T11:44:47.013Z,4.90
2022-10-19T11:47:53.894Z,4.70
2022-10-19T11:51:10.119Z,5.30
2022-10-19T11:54:25.435Z,4.87
2022-10-19T11:57:11.866Z,4.20
2022-10-19T12:00:03.748Z,5.57
2022-10-19T12:03:03.401Z,4.90
2022-10-19T12:06:11.175Z,4.73
2022-10-19T12:09:02.202Z,5.30
2022-10-19T12:11:47.624Z,5.87
2022-10-19T12:14:18.832Z,5.13
2022-10-19T12:16:51.479Z,5.00
2022-10-19T12:19:23.940Z,4.77
2022-10-19T12:21:54.295Z,5.10
2022-10-19T12:24:24.156Z,5.27
2022-10-19T12:26:52.204Z,4.80
2022-10-19T12:29:25.606Z,5.03
2022-10-19T12:31:54.137Z,4.60
2022-10-19T12:49:46.768Z,5.33
2022-10-19T12:52:14.698Z,4.93
2022-10-19T12:54:43.144Z,5.73
2022-10-19T12:57:27.585Z,5.20
2022-10-19T13:00:05.339Z,6.03
2022-10-19T13:02:35.084Z,5.53
2022-10-19T13:05:02.151Z,4.43
2022-10-19T13:07:30.797Z,5.23
2022-10-19T13:10:03.288Z,5.47
2022-10-19T13:12:43.769Z,5.27
2022-10-19T13:15:36.439Z,5.33
2022-10-19T13:18:13.194Z,6.43
2022-10-19T13:23:27.579Z,6.53
2022-10-19T13:26:42.771Z,6.47
2022-10-19T13:29:25.840Z,5.90
2022-10-19T13:31:52.720Z,4.50
2022-10-19T13:34:19.597Z,6.00
2022-10-19T13:37:03.010Z,6.57
2022-10-19T13:39:30.263Z,6.27
2022-10-19T13:41:57.508Z,6.20
2022-10-19T13:44:27.099Z,5.57
2022-10-19T13:47:06.163Z,6.37
2022-10-19T13:49:51.114Z,6.53
2022-10-19T13:52:55.383Z,7.60
2022-10-19T13:55:47.527Z,6.23
2022-10-19T13:58:32.571Z,5.70
2022-10-19T14:01:14.408Z,7.60
2022-10-19T14:04:09.068Z,7.20
2022-10-19T14:06:52.461Z,6.70
2022-10-19T14:09:22.426Z,7.07
2022-10-19T14:11:52.400Z,7.63
2022-10-19T14:14:24.634Z,6.60
2022-10-19T14:16:58.290Z,7.50
2022-10-19T14:19:49.190Z,7.43
2022-10-19T14:22:26.448Z,7.10
2022-10-19T14:25:01.755Z,8.40
2022-10-19T14:27:28.895Z,7.20
2022-10-19T14:29:55.741Z,6.67
2022-10-19T14:32:26.284Z,7.63
2022-10-19T14:34:53.870Z,7.33
2022-10-19T14:37:26.446Z,8.27
2022-10-19T14:40:07.014Z,7.63
2022-10-19T14:42:45.771Z,8.27
2022-10-19T14:45:15.693Z,8.60
2022-10-19T14:48:02.405Z,7.30
2022-10-19T14:50:35.062Z,7.53
2022-10-19T14:53:23.765Z,6.73
2022-10-19T14:55:52.468Z,6.37
2022-10-19T14:58:23.176Z,8.27
2022-10-19T15:00:50.614Z,7.83
2022-10-19T15:03:26.409Z,6.60
2022-10-19T15:05:58.115Z,6.57
2022-10-19T15:08:32.405Z,7.17
2022-10-19T15:10:59.583Z,7.53
2022-10-19T15:13:33.868Z,6.20
2022-10-19T15:16:00.732Z,6.70
2022-10-19T15:18:48.868Z,6.37
2022-10-19T15:21:20.341Z,7.00
2022-10-19T15:23:48.947Z,5.43
2022-10-19T15:26:28.607Z,4.70
2022-10-19T15:29:18.755Z,5.10
2022-10-19T15:31:45.547Z,4.93
2022-10-19T15:34:31.084Z,5.40
2022-10-19T15:36:59.808Z,4.60
2022-10-19T15:39:40.126Z,4.70
2022-10-19T15:42:36.692Z,4.13
2022-10-19T15:45:25.301Z,4.57
2022-10-19T15:48:10.398Z,3.80
2022-10-19T15:50:49.521Z,3.80
2022-10-19T15:53:16.958Z,3.40
2022-10-19T15:55:43.840Z,4.23
2022-10-19T15:58:11.714Z,5.10
2022-10-19T16:00:39.362Z,4.70
2022-10-19T16:03:06.361Z,4.23
2022-10-19T16:05:35.524Z,4.20
2022-10-19T16:08:02.656Z,4.50
2022-10-19T16:10:29.588Z,3.87
2022-10-19T16:12:56.359Z,3.53
2022-10-19T16:15:23.972Z,3.67
2022-10-19T16:17:53.477Z,4.90
2022-10-19T16:20:20.528Z,4.40
2022-10-19T16:22:47.566Z,5.03
2022-10-19T16:25:14.867Z,4.90
2022-10-19T16:27:41.943Z,3.90
2022-10-19T16:30:09.921Z,3.97
2022-10-19T16:32:36.854Z,3.67
2022-10-19T16:35:03.964Z,3.20
2022-10-19T16:37:30.804Z,2.57
2022-10-19T16:39:57.654Z,2.63
2022-10-19T16:42:29.693Z,2.70
2022-10-19T16:44:57.605Z,2.93
2022-10-19T16:47:24.389Z,2.50
2022-10-19T16:49:58.279Z,2.70
2022-10-19T16:52:25.100Z,3.50
2022-10-19T16:54:51.893Z,3.03
2022-10-19T16:57:18.823Z,3.37
2022-10-19T16:59:45.822Z,4.00
2022-10-19T17:02:12.910Z,2.87
2022-10-19T17:04:39.821Z,5.20
2022-10-19T17:07:06.670Z,3.60
2022-10-19T17:09:42.162Z,4.57
2022-10-19T17:12:10.362Z,6.97
2022-10-19T17:14:39.655Z,4.23
2022-10-19T17:17:06.634Z,3.23
2022-10-19T17:19:33.541Z,2.97
2022-10-19T17:22:02.064Z,2.80
2022-10-19T17:24:28.876Z,2.80
2022-10-19T17:26:56.098Z,2.10
2022-10-19T17:29:23.414Z,1.93
2022-10-19T17:31:50.354Z,2.30
2022-10-19T17:34:17.878Z,2.03
2022-10-19T17:36:45.728Z,1.67
2022-10-19T17:39:17.714Z,2.60
2022-10-19T17:41:45.771Z,2.20
2022-10-19T17:44:12.884Z,2.07
2022-10-19T17:46:39.717Z,1.97
2022-10-19T17:49:06.738Z,2.10
2022-10-19T17:51:35.701Z,1.97
2022-10-19T17:54:05.974Z,2.00
2022-10-19T17:56:32.864Z,1.80
2022-10-19T17:58:59.930Z,2.27
2022-10-19T18:01:27.052Z,2.57
2022-10-19T18:03:54.018Z,2.10
2022-10-19T18:06:26.275Z,2.03
2022-10-19T18:08:55.763Z,1.87
2022-10-19T18:11:28.116Z,2.27
2022-10-19T18:13:58.052Z,1.60
2022-10-19T18:16:37.554Z,1.93
2022-10-19T18:19:05.707Z,1.67
2022-10-19T18:21:35.604Z,2.07
2022-10-19T18:24:03.327Z,1.70
2022-10-19T18:26:32.286Z,2.67
2022-10-19T18:29:00.190Z,1.57
2022-10-19T18:31:31.706Z,2.23
2022-10-19T18:34:01.428Z,1.87
2022-10-19T18:36:28.806Z,1.80
2022-10-19T18:39:01.462Z,1.87
2022-10-19T18:41:28.578Z,1.80
2022-10-19T18:44:02.122Z,1.30
2022-10-19T18:46:29.187Z,1.77
2022-10-19T18:48:56.030Z,2.20
2022-10-19T18:51:23.849Z,1.83
2022-10-19T18:53:50.759Z,2.23
2022-10-19T18:56:19.903Z,1.53
2022-10-19T18:58:47.080Z,1.90
